createdAt,value
2023-05-04T00:00:10.519Z,85198.31
2023-05-04T00:02:38.871Z,84122.28
2023-05-04T00:05:09.095Z,84521.88
2023-05-04T00:07:37.737Z,82712.31
2023-05-04T00:10:08.703Z,76451.69
2023-05-04T00:12:38.180Z,72697.81
2023-05-04T00:15:07.634Z,70530.34
2023-05-04T00:17:35.867Z,69779.66
2023-05-04T00:20:05.500Z,69967.88
2023-05-04T00:22:34.518Z,70203.19
2023-05-04T00:25:02.665Z,70295.19
2023-05-04T00:27:30.752Z,69862.38
2023-05-04T00:30:00.454Z,69852.44
2023-05-04T00:32:28.484Z,70495.34
2023-05-04T00:34:56.695Z,70043.22
2023-05-04T00:37:27.821Z,69185.81
2023-05-04T00:39:56.234Z,70179.03
2023-05-04T00:42:26.814Z,69891.56
2023-05-04T00:44:54.983Z,69244.13
2023-05-04T00:47:25.623Z,70496.25
2023-05-04T00:49:55.278Z,70199.69
2023-05-04T00:52:29.147Z,69178.34
2023-05-04T00:54:57.093Z,66316.94
2023-05-04T00:57:24.944Z,64845.13
2023-05-04T00:59:55.025Z,64597.38
2023-05-04T01:02:25.077Z,66461.88
2023-05-04T01:04:53.069Z,67128.91
2023-05-04T01:07:28.087Z,68859.56
2023-05-04T01:10:03.754Z,68884.50
2023-05-04T01:12:41.148Z,69222.09
2023-05-04T01:15:11.613Z,71069.84
2023-05-04T01:17:42.377Z,71478.50
2023-05-04T01:20:17.625Z,74723.84
2023-05-04T01:22:47.897Z,78859.63
2023-05-04T01:25:17.734Z,78651.69
2023-05-04T01:27:51.470Z,77699.41
2023-05-04T01:30:27.074Z,76238.16
2023-05-04T01:32:56.543Z,75072.97
2023-05-04T01:35:24.816Z,74567.13
2023-05-04T01:37:57.164Z,72804.19
2023-05-04T01:40:25.538Z,72419.63
2023-05-04T01:42:53.822Z,71615.91
2023-05-04T01:45:22.438Z,69936.38
2023-05-04T01:47:50.997Z,69420.53
2023-05-04T01:50:19.476Z,68998.81
2023-05-04T01:52:47.503Z,69362.66
2023-05-04T01:55:17.192Z,68930.91
2023-05-04T01:57:46.446Z,67671.22
2023-05-04T02:00:16.682Z,67161.59
2023-05-04T02:02:44.792Z,66899.16
2023-05-04T02:05:18.853Z,67163.09
2023-05-04T02:07:47.079Z,67084.13
2023-05-04T02:10:17.821Z,67284.09
2023-05-04T02:12:46.428Z,67874.78
2023-05-04T02:15:14.829Z,67317.31
2023-05-04T02:17:42.954Z,67233.09
2023-05-04T02:20:13.106Z,66594.81
2023-05-04T02:22:42.293Z,66318.25
2023-05-04T02:25:12.719Z,65844.56
2023-05-04T02:27:42.141Z,65077.78
2023-05-04T02:30:11.991Z,64943.06
2023-05-04T02:32:41.165Z,64080.75
2023-05-04T02:35:10.334Z,64053.06
2023-05-04T02:37:39.566Z,62716.13
2023-05-04T02:40:24.930Z,62313.88
2023-05-04T02:42:56.642Z,61493.97
2023-05-04T02:45:37.056Z,60518.28
2023-05-04T02:48:14.389Z,60077.34
2023-05-04T02:51:11.401Z,58621.78
2023-05-04T02:54:01.256Z,57502.03
2023-05-04T02:56:31.202Z,57249.88
2023-05-04T02:59:02.538Z,57063.59
2023-05-04T03:01:32.198Z,57883.72
2023-05-04T03:04:05.670Z,57702.91
2023-05-04T03:06:33.885Z,56457.53
2023-05-04T03:09:07.783Z,55524.31
2023-05-04T03:11:36.570Z,55550.38
2023-05-04T03:14:06.677Z,54113.00
2023-05-04T03:16:36.028Z,54463.97
2023-05-04T03:19:04.268Z,54144.81
2023-05-04T03:21:32.224Z,54442.97
2023-05-04T03:24:00.366Z,53833.53
2023-05-04T03:26:28.288Z,53740.00
2023-05-04T03:28:56.247Z,53690.03
2023-05-04T03:31:25.955Z,53214.94
2023-05-04T03:33:53.981Z,52659.09
2023-05-04T03:36:22.185Z,52020.91
2023-05-04T03:38:50.350Z,51257.88
2023-05-04T03:41:22.695Z,50995.44
2023-05-04T03:43:50.949Z,50704.38
2023-05-04T03:46:18.907Z,50098.09
2023-05-04T03:48:48.481Z,49091.22
2023-05-04T03:51:16.628Z,48167.16
2023-05-04T03:53:46.108Z,47976.47
2023-05-04T03:56:15.410Z,48788.34
2023-05-04T03:58:43.755Z,48833.22
2023-05-04T04:01:13.262Z,48109.69
2023-05-04T04:03:41.763Z,47428.34
2023-05-04T04:06:13.526Z,46630.19
2023-05-04T04:08:41.571Z,45711.47
2023-05-04T04:11:09.742Z,45751.47
2023-05-04T04:13:40.491Z,44782.72
2023-05-04T04:16:10.133Z,44094.88
2023-05-04T04:18:43.473Z,43932.16
2023-05-04T04:21:13.514Z,43061.03
2023-05-04T04:23:41.686Z,42670.03
2023-05-04T04:26:10.453Z,42179.28
2023-05-04T04:28:39.972Z,41690.16
2023-05-04T04:31:08.191Z,40885.53
2023-05-04T04:33:36.387Z,39857.78
2023-05-04T04:36:04.627Z,40162.44
2023-05-04T04:38:34.988Z,40094.59
2023-05-04T04:41:03.280Z,39607.25
2023-05-04T04:43:33.613Z,39768.97
2023-05-04T04:46:05.160Z,39689.19
2023-05-04T04:48:33.278Z,39530.50
2023-05-04T04:51:01.536Z,38934.13
2023-05-04T04:53:29.528Z,38167.72
2023-05-04T04:56:01.016Z,37203.81
2023-05-04T04:58:29.074Z,36445.44
2023-05-04T05:00:58.486Z,35885.88
2023-05-04T05:03:27.028Z,34070.38
2023-05-04T05:05:55.711Z,32402.34
2023-05-04T05:08:23.716Z,32009.50
2023-05-04T05:10:52.907Z,31747.16
2023-05-04T05:13:26.352Z,30169.69
2023-05-04T05:15:54.323Z,29588.84
2023-05-04T05:18:22.724Z,28933.53
2023-05-04T05:20:51.009Z,26811.97
2023-05-04T05:23:19.217Z,25626.31
2023-05-04T05:25:47.238Z,24267.81
2023-05-04T05:28:17.681Z,23722.50
2023-05-04T05:30:48.155Z,22444.13
2023-05-04T05:33:17.025Z,21830.75
2023-05-04T05:35:45.055Z,19816.81
2023-05-04T05:38:15.723Z,18058.22
2023-05-04T05:40:45.712Z,16780.25
2023-05-04T05:43:14.068Z,14428.59
2023-05-04T05:45:42.362Z,12624.13
2023-05-04T05:48:11.958Z,10788.84
2023-05-04T05:50:41.088Z,8405.56
2023-05-04T05:53:10.733Z,6427.78
2023-05-04T05:55:39.329Z,2772.59
2023-05-04T05:58:07.855Z,257.63
2023-05-04T06:00:35.923Z,-1373.72
2023-05-04T06:03:04.067Z,-6828.09
2023-05-04T06:05:35.170Z,-10575.53
2023-05-04T06:08:03.822Z,-13763.50
2023-05-04T06:10:32.240Z,-16296.72
2023-05-04T06:13:00.294Z,-17756.75
2023-05-04T06:15:28.327Z,-19770.63
2023-05-04T06:17:59.388Z,-20057.91
2023-05-04T06:20:29.881Z,-20063.09
2023-05-04T06:22:59.805Z,-20050.31
2023-05-04T06:25:28.965Z,-20059.03
2023-05-04T06:27:58.094Z,-20062.13
2023-05-04T06:30:26.696Z,-20070.53
2023-05-04T06:32:54.977Z,-20074.03
2023-05-04T06:35:24.189Z,-20069.69
2023-05-04T06:37:53.291Z,-20070.13
2023-05-04T06:40:22.630Z,-20073.34
2023-05-04T06:42:52.173Z,-20071.38
2023-05-04T06:45:20.403Z,-20071.25
2023-05-04T06:47:52.617Z,-20086.53
2023-05-04T06:50:23.859Z,-20093.41
2023-05-04T06:52:53.919Z,-20092.84
2023-05-04T06:55:24.033Z,-20086.81
2023-05-04T06:57:52.648Z,-20090.44
2023-05-04T07:00:28.311Z,-20099.44
2023-05-04T07:03:05.681Z,-20102.09
2023-05-04T07:05:40.101Z,-20103.34
2023-05-04T07:08:25.578Z,-20115.13
2023-05-04T07:10:59.262Z,-20112.03
2023-05-04T07:13:54.167Z,-20119.47
2023-05-04T07:16:28.481Z,-20119.19
2023-05-04T07:18:59.609Z,-20121.00
2023-05-04T07:21:29.515Z,-20133.88
2023-05-04T07:23:58.913Z,-20139.19
2023-05-04T07:26:30.837Z,-20136.13
2023-05-04T07:28:58.901Z,-20146.47
2023-05-04T07:31:28.790Z,-20143.13
2023-05-04T07:34:00.561Z,-20149.13
2023-05-04T07:36:28.669Z,-20150.13
2023-05-04T07:38:56.904Z,-20140.59
2023-05-04T07:41:25.671Z,-20141.84
2023-05-04T07:43:56.461Z,-20144.09
2023-05-04T07:46:26.044Z,-20165.63
2023-05-04T07:48:58.398Z,-20176.53
2023-05-04T07:51:31.493Z,-20162.41
2023-05-04T07:54:01.090Z,-20176.53
2023-05-04T07:56:29.272Z,-20189.81
2023-05-04T07:58:58.899Z,-20202.66
2023-05-04T08:01:27.331Z,-20192.34
2023-05-04T08:03:55.533Z,-20208.94
2023-05-04T08:06:25.084Z,-20222.22
2023-05-04T08:08:53.954Z,-20212.84
2023-05-04T08:11:22.066Z,-20229.88
2023-05-04T08:13:51.773Z,-20216.63
2023-05-04T08:16:21.255Z,-20233.78
2023-05-04T08:18:56.422Z,-20239.78
2023-05-04T08:21:25.530Z,-19897.25
2023-05-04T08:23:54.661Z,152969.34
2023-05-04T08:26:28.105Z,152981.06
2023-05-04T08:29:08.757Z,152925.13
2023-05-04T08:31:45.429Z,152929.03
2023-05-04T08:34:14.029Z,152896.53
2023-05-04T08:36:42.352Z,152965.44
2023-05-04T08:39:12.047Z,152958.97
2023-05-04T08:41:41.090Z,153202.34
2023-05-04T08:44:11.648Z,152999.31
2023-05-04T08:46:45.422Z,152958.97
2023-05-04T08:49:13.522Z,153150.28
2023-05-04T08:51:43.840Z,153184.16
2023-05-04T08:54:20.136Z,153173.72
2023-05-04T08:56:48.500Z,153277.88
2023-05-04T08:59:21.941Z,153333.94
2023-05-04T09:01:55.862Z,153117.78
2023-05-04T09:04:29.345Z,153233.63
2023-05-04T09:06:58.888Z,153371.69
2023-05-04T09:09:31.690Z,153184.16
2023-05-04T09:12:00.345Z,153372.97
2023-05-04T09:14:35.805Z,153272.66
2023-05-04T09:17:16.595Z,153471.97
2023-05-04T09:19:47.666Z,153586.69
2023-05-04T09:22:18.138Z,153554.13
2023-05-04T09:24:46.584Z,153650.56
2023-05-04T09:27:18.115Z,153483.72
2023-05-04T09:29:54.927Z,153328.72
2023-05-04T09:32:26.441Z,153361.25
2023-05-04T09:34:56.191Z,153590.59
2023-05-04T09:37:25.398Z,153531.91
2023-05-04T09:39:57.933Z,153601.03
2023-05-04T09:42:29.822Z,153767.91
2023-05-04T09:45:05.049Z,153997.53
2023-05-04T09:47:39.886Z,153803.16
2023-05-04T09:50:20.133Z,153770.50
2023-05-04T09:52:49.898Z,153908.78
2023-05-04T09:55:19.957Z,153901.00
2023-05-04T09:57:54.027Z,153863.13
2023-05-04T10:00:22.030Z,153791.44
2023-05-04T10:02:59.065Z,153856.63
2023-05-04T10:05:28.606Z,153740.53
2023-05-04T10:08:01.055Z,153932.28
2023-05-04T10:10:29.474Z,154078.47
2023-05-04T10:12:57.915Z,154313.50
2023-05-04T10:15:27.313Z,154186.84
2023-05-04T10:18:19.004Z,154458.53
2023-05-04T10:21:09.120Z,154518.69
2023-05-04T10:24:03.730Z,154009.28
2023-05-04T10:27:01.032Z,154146.34
2023-05-04T10:29:34.602Z,154252.13
2023-05-04T10:32:03.499Z,154391.91
2023-05-04T10:34:40.149Z,154386.66
2023-05-04T10:37:18.379Z,154300.44
2023-05-04T10:39:59.525Z,154308.28
2023-05-04T10:42:41.624Z,154394.50
2023-05-04T10:45:11.729Z,154425.84
2023-05-04T10:47:41.977Z,154466.38
2023-05-04T10:50:28.767Z,154283.50
2023-05-04T10:52:58.347Z,154501.69
2023-05-04T10:55:42.806Z,154301.75
2023-05-04T10:58:16.629Z,154228.59
2023-05-04T11:00:47.916Z,154179.00
2023-05-04T11:03:22.188Z,154099.34
2023-05-04T11:05:54.829Z,154126.78
2023-05-04T11:08:33.511Z,154024.94
2023-05-04T11:11:03.468Z,154112.41
2023-05-04T11:13:32.224Z,154411.47
2023-05-04T11:16:07.686Z,154343.56
2023-05-04T11:18:37.526Z,154363.13
2023-05-04T11:21:08.210Z,154406.28
2023-05-04T11:23:36.561Z,154386.66
2023-05-04T11:26:12.374Z,154522.56
2023-05-04T11:28:43.109Z,154743.56
2023-05-04T11:31:21.949Z,154935.81
2023-05-04T11:33:52.329Z,154854.72
2023-05-04T11:36:23.278Z,154627.16
2023-05-04T11:38:57.672Z,154436.31
2023-05-04T11:41:47.764Z,154499.06
2023-05-04T11:44:20.493Z,154514.75
2023-05-04T11:46:51.665Z,154384.06
2023-05-04T11:49:23.750Z,154416.69
2023-05-04T11:52:08.040Z,154530.41
2023-05-04T11:54:36.999Z,154722.63
2023-05-04T11:57:05.740Z,154546.09
2023-05-04T11:59:33.979Z,154527.78
2023-05-04T12:02:02.119Z,154512.16
2023-05-04T12:04:33.146Z,154547.41
2023-05-04T12:07:10.478Z,154633.66
2023-05-04T12:10:16.149Z,154760.53
2023-05-04T12:12:44.337Z,154865.13
2023-05-04T12:15:12.462Z,154651.97
2023-05-04T12:17:45.046Z,154648.03
2023-05-04T12:20:24.446Z,154683.41
2023-05-04T12:23:06.729Z,154662.44
2023-05-04T12:25:39.131Z,154725.25
2023-05-04T12:28:12.447Z,154815.44
2023-05-04T12:30:43.038Z,154610.16
2023-05-04T12:33:11.020Z,154411.47
2023-05-04T12:35:39.485Z,154404.97
2023-05-04T12:38:11.856Z,154735.69
2023-05-04T12:40:40.313Z,154950.22
2023-05-04T12:43:08.809Z,154871.72
2023-05-04T12:45:37.275Z,154956.78
2023-05-04T12:48:05.780Z,154896.59
2023-05-04T12:50:34.870Z,155056.19
2023-05-04T12:53:04.273Z,155030.00
2023-05-04T12:55:35.828Z,155335.13
2023-05-04T12:58:07.631Z,155073.28
2023-05-04T13:00:40.334Z,154814.13
2023-05-04T13:03:09.749Z,154900.53
2023-05-04T13:05:38.092Z,155096.81
2023-05-04T13:08:06.516Z,155134.78
2023-05-04T13:10:39.558Z,155450.44
2023-05-04T13:13:11.097Z,155301.09
2023-05-04T13:15:41.058Z,155132.19
2023-05-04T13:18:13.573Z,154963.31
2023-05-04T13:20:42.037Z,154968.50
2023-05-04T13:23:10.112Z,155088.94
2023-05-04T13:25:42.372Z,155306.31
2023-05-04T13:28:13.924Z,155298.50
2023-05-04T13:30:46.145Z,155109.91
2023-05-04T13:33:28.031Z,155100.75
2023-05-04T13:36:24.117Z,155052.28
2023-05-04T13:39:00.229Z,155356.09
2023-05-04T13:41:34.500Z,155128.25
2023-05-04T13:44:05.249Z,155450.44
2023-05-04T13:46:36.989Z,155369.16
2023-05-04T13:49:09.111Z,155295.88
2023-05-04T13:51:45.932Z,155162.25
2023-05-04T13:54:20.602Z,155142.59
2023-05-04T13:56:52.620Z,155014.34
2023-05-04T13:59:21.409Z,154998.63
2023-05-04T14:01:50.604Z,154993.41
2023-05-04T14:04:18.786Z,155030.00
2023-05-04T14:06:54.876Z,154825.91
2023-05-04T14:09:23.033Z,154841.63
2023-05-04T14:11:52.618Z,154717.38
2023-05-04T14:14:22.425Z,155009.09
2023-05-04T14:16:52.241Z,155030.00
2023-05-04T14:19:20.390Z,155238.19
2023-05-04T14:21:48.387Z,154857.28
2023-05-04T14:24:16.467Z,154799.78
2023-05-04T14:26:46.399Z,154875.66
2023-05-04T14:29:15.958Z,155070.66
2023-05-04T14:31:46.197Z,155083.72
2023-05-04T14:34:14.314Z,155160.94
2023-05-04T14:36:42.480Z,155140.00
2023-05-04T14:39:12.092Z,155090.25
2023-05-04T14:41:40.235Z,154980.28
2023-05-04T14:44:09.700Z,155061.50
2023-05-04T14:46:44.215Z,154975.06
2023-05-04T14:49:28.355Z,154982.91
2023-05-04T14:52:14.614Z,154786.69
2023-05-04T14:55:41.839Z,155069.34
2023-05-04T14:58:21.718Z,154789.31
2023-05-04T15:00:55.908Z,154785.38
2023-05-04T15:03:31.270Z,154708.22
2023-05-04T15:06:09.584Z,154601.00
2023-05-04T15:08:44.008Z,154785.38
2023-05-04T15:11:12.205Z,154829.84
2023-05-04T15:13:44.673Z,155082.41
2023-05-04T15:16:21.688Z,155087.63
2023-05-04T15:18:54.114Z,154907.06
2023-05-04T15:21:38.633Z,154897.91
2023-05-04T15:24:20.248Z,155020.91
2023-05-04T15:27:02.461Z,154774.91
2023-05-04T15:29:38.354Z,154747.44
2023-05-04T15:32:13.560Z,154655.88
2023-05-04T15:35:04.581Z,154522.56
2023-05-04T15:37:37.256Z,154717.38
2023-05-04T15:43:02.934Z,154841.63
2023-05-04T15:45:43.073Z,154833.75
2023-05-04T15:48:30.756Z,154632.38
2023-05-04T15:55:17.003Z,154480.75
2023-05-04T15:58:13.100Z,154453.31
2023-05-04T16:00:58.318Z,154505.59
2023-05-04T16:06:26.600Z,154361.81
2023-05-04T16:12:48.368Z,154330.50
2023-05-04T16:18:20.242Z,154186.84
2023-05-04T16:20:49.526Z,154169.84
2023-05-04T16:23:19.110Z,154193.31
2023-05-04T16:25:56.489Z,154175.09
2023-05-04T16:28:29.462Z,154075.84
2023-05-04T16:30:59.331Z,154088.91
2023-05-04T16:33:29.487Z,154051.06
2023-05-04T16:36:03.854Z,154041.94
2023-05-04T16:38:38.893Z,154088.91
2023-05-04T16:41:13.417Z,154044.53
2023-05-04T16:43:45.802Z,154047.16
2023-05-04T16:46:23.946Z,154013.19
2023-05-04T16:48:54.458Z,153979.25
2023-05-04T16:51:27.345Z,153996.22
2023-05-04T16:53:58.018Z,153976.63
2023-05-04T16:56:26.694Z,153971.41
2023-05-04T16:58:57.262Z,153927.06
2023-05-04T17:01:27.487Z,153983.16
2023-05-04T17:04:02.018Z,153987.06
2023-05-04T17:06:30.070Z,154035.41
2023-05-04T17:09:00.811Z,153994.91
2023-05-04T17:11:29.458Z,153993.63
2023-05-04T17:14:01.371Z,153975.31
2023-05-04T17:16:29.310Z,153976.63
2023-05-04T17:18:57.316Z,153912.69
2023-05-04T17:21:25.209Z,153907.53
2023-05-04T17:23:53.273Z,153906.22
2023-05-04T17:26:22.456Z,153932.28
2023-05-04T17:28:50.614Z,153877.50
2023-05-04T17:31:18.517Z,153822.72
2023-05-04T17:33:46.694Z,153821.41
2023-05-04T17:36:18.645Z,153799.22
2023-05-04T17:38:46.744Z,153758.78
2023-05-04T17:41:16.127Z,153739.25
2023-05-04T17:43:50.554Z,153722.28
2023-05-04T17:46:18.643Z,153700.09
2023-05-04T17:48:46.681Z,153706.63
2023-05-04T17:51:14.717Z,153694.88
2023-05-04T17:53:42.872Z,153713.16
2023-05-04T17:56:11.499Z,153681.88
2023-05-04T17:58:39.870Z,153647.97
2023-05-04T18:01:09.782Z,153645.34
2023-05-04T18:03:37.940Z,153611.47
2023-05-04T18:06:12.531Z,153584.09
2023-05-04T18:08:40.450Z,153572.38
2023-05-04T18:11:10.153Z,153533.22
2023-05-04T18:13:39.255Z,153525.38
2023-05-04T18:16:08.950Z,153512.41
2023-05-04T18:18:37.033Z,153504.56
2023-05-04T18:21:08.310Z,153494.16
2023-05-04T18:23:36.649Z,153465.44
2023-05-04T18:26:04.487Z,153440.72
2023-05-04T18:28:32.689Z,153427.69
2023-05-04T18:31:01.279Z,153402.97
2023-05-04T18:33:31.621Z,153366.47
2023-05-04T18:35:59.686Z,153337.84
2023-05-04T18:38:27.715Z,153353.44
2023-05-04T18:40:56.407Z,153298.72
2023-05-04T18:43:24.370Z,153322.19
2023-05-04T18:45:52.684Z,153289.66
2023-05-04T18:48:21.181Z,153272.66
2023-05-04T18:50:57.339Z,153249.22
2023-05-04T18:53:26.099Z,153211.47
2023-05-04T18:56:04.464Z,153206.25
2023-05-04T18:58:32.336Z,153184.16
2023-05-04T19:01:00.655Z,153121.69
2023-05-04T19:03:28.818Z,153064.41
2023-05-04T19:05:58.348Z,153048.78
2023-05-04T19:08:26.513Z,153005.81
2023-05-04T19:10:58.073Z,153009.72
2023-05-04T19:13:26.412Z,152960.28
2023-05-04T19:15:54.398Z,152986.28
2023-05-04T19:18:23.361Z,152947.28
2023-05-04T19:20:52.441Z,152917.31
2023-05-04T19:23:22.902Z,152899.16
2023-05-04T19:25:50.839Z,152895.25
2023-05-04T19:28:19.949Z,152900.44
2023-05-04T19:30:50.358Z,152879.63
2023-05-04T19:33:18.399Z,152858.78
2023-05-04T19:35:47.617Z,152045.88
2023-05-04T19:38:16.117Z,151476.22
2023-05-04T19:40:46.127Z,148819.84
2023-05-04T19:43:14.120Z,151363.09
2023-05-04T19:45:42.507Z,152793.81
2023-05-04T19:48:13.276Z,152778.22
2023-05-04T19:50:42.497Z,152778.22
2023-05-04T19:53:10.461Z,152767.78
2023-05-04T19:55:38.827Z,152741.78
2023-05-04T19:58:10.755Z,152750.88
2023-05-04T20:00:40.153Z,152736.63
2023-05-04T20:03:08.626Z,152734.00
2023-05-04T20:05:38.414Z,152749.56
2023-05-04T20:08:09.919Z,152736.63
2023-05-04T20:10:37.982Z,152723.59
2023-05-04T20:13:06.865Z,152734.00
2023-05-04T20:15:37.777Z,152704.03
2023-05-04T20:18:06.661Z,152717.09
2023-05-04T20:20:34.708Z,152702.72
2023-05-04T20:23:03.268Z,152707.94
2023-05-04T20:25:37.053Z,152692.31
2023-05-04T20:28:12.457Z,152687.13
2023-05-04T20:30:42.664Z,152692.31
2023-05-04T20:33:11.742Z,152672.88
2023-05-04T20:35:41.496Z,152662.47
2023-05-04T20:38:09.550Z,152631.25
2023-05-04T20:40:57.546Z,152614.38
2023-05-04T20:43:37.882Z,152605.28
2023-05-04T20:46:17.771Z,152598.78
2023-05-04T20:48:52.004Z,152583.16
2023-05-04T20:51:22.832Z,152593.56
2023-05-04T20:53:50.992Z,152593.56
2023-05-04T20:56:19.383Z,152565.00
2023-05-04T20:58:47.246Z,152558.50
2023-05-04T21:01:18.811Z,152576.66
2023-05-04T21:03:48.097Z,152509.16
2023-05-04T21:06:18.426Z,152513.03
2023-05-04T21:08:46.781Z,152527.28
2023-05-04T21:11:14.908Z,152518.25
2023-05-04T21:13:43.136Z,152483.13
2023-05-04T21:16:11.382Z,152522.09
2023-05-04T21:18:41.822Z,152474.03
2023-05-04T21:21:09.909Z,152472.75
2023-05-04T21:23:38.266Z,152468.84
2023-05-04T21:26:09.808Z,152480.53
2023-05-04T21:28:38.107Z,152461.09
2023-05-04T21:31:09.220Z,152484.44
2023-05-04T21:33:41.212Z,152441.59
2023-05-04T21:36:20.086Z,152467.53
2023-05-04T21:38:59.136Z,152461.09
2023-05-04T21:41:29.631Z,152454.59
2023-05-04T21:44:07.052Z,152475.34
2023-05-04T21:46:45.389Z,152449.38
2023-05-04T21:49:41.566Z,152416.88
2023-05-04T21:52:20.007Z,152384.41
2023-05-04T21:55:03.326Z,152424.69
2023-05-04T21:57:36.300Z,152427.28
2023-05-04T22:00:12.325Z,152340.25
2023-05-04T22:02:54.987Z,152385.69
2023-05-04T22:05:23.457Z,152385.69
2023-05-04T22:07:52.759Z,152366.19
2023-05-04T22:10:20.803Z,152354.50
2023-05-04T22:12:49.161Z,152358.41
2023-05-04T22:15:21.384Z,152338.97
2023-05-04T22:18:39.858Z,152338.97
2023-05-04T22:21:05.721Z,152302.56
2023-05-04T22:23:35.198Z,152314.28
2023-05-04T22:26:04.447Z,152290.94
2023-05-04T22:28:33.773Z,152263.63
2023-05-04T22:31:01.893Z,152266.25
2023-05-04T22:33:29.914Z,152253.25
2023-05-04T22:35:58.257Z,152227.31
2023-05-04T22:38:26.859Z,152232.50
2023-05-04T22:40:56.091Z,152215.63
2023-05-04T22:43:23.993Z,152185.78
2023-05-04T22:45:52.054Z,152159.81
2023-05-04T22:48:20.912Z,152136.44
2023-05-04T22:50:49.568Z,152133.84
2023-05-04T22:53:17.540Z,152137.75
2023-05-04T22:55:45.954Z,152089.75
2023-05-04T22:58:15.441Z,148031.81
2023-05-04T23:00:43.538Z,142788.41
2023-05-04T23:03:11.600Z,99331.44
2023-05-04T23:05:39.774Z,75642.28
2023-05-04T23:08:09.181Z,78677.88
2023-05-04T23:10:37.162Z,72268.41
2023-05-04T23:13:05.267Z,72284.03
2023-05-04T23:15:34.602Z,62520.06
2023-05-04T23:18:02.594Z,60489.72
2023-05-04T23:20:30.886Z,53776.63
2023-05-04T23:22:59.002Z,59495.78
2023-05-04T23:25:26.994Z,59158.97
2023-05-04T23:27:55.117Z,55800.88
2023-05-04T23:30:23.728Z,55460.13
2023-05-04T23:32:53.302Z,50101.03
2023-05-04T23:35:21.418Z,49761.38
2023-05-04T23:37:53.638Z,43066.41
2023-05-04T23:40:21.893Z,42391.94
2023-05-04T23:42:50.773Z,40391.16
2023-05-04T23:45:18.993Z,28065.13
2023-05-04T23:47:46.976Z,23411.47
2023-05-04T23:50:16.772Z,23082.16
2023-05-04T23:52:44.910Z,22086.34
2023-05-04T23:55:12.974Z,21420.97
2023-05-04T23:57:43.874Z,16775.91
